Buoy 43541

sailwx.info

Track history (hours):
 
Tides and Currents Weather Stations Pressure Air Temp Water Temp Dewpoint Dewpoint Depression Visibility Wind Speed Wind Dir Waves Ship Positions

Drifting buoy 43541

Last reported at 2017-Sep-21 19:00 UTC. Time now 2017-Sep-21 23:13 UTC.
Position N 31°50' W 140°55'.

Water temperature 23.8 ° C

Date/timePositionNaut miles runAvg speedWind from/ knotsBaromVisibWave heightAir tempDewpointWater temp
2017-Sep-21 19:00N 31°50' W 140°55'2 1.6 23.8
2017-Sep-21 18:00N 31°50' W 140°57'2 1.6 23.7
2017-Sep-21 17:00N 31°51' W 140°59'2 1.6 23.7
2017-Sep-21 16:00N 31°50' W 140°57'3 0.9 23.7
2017-Sep-21 13:00N 31°51' W 141°00'0 0.0 23.7
2017-Sep-21 12:00N 31°51' W 141°00'0 0.0 23.6
2017-Sep-21 05:00N 31°51' W 141°00'0 0.0 23.7
2017-Sep-21 04:00N 31°51' W 141°00'4 0.9 23.7
2017-Sep-20 23:00N 31°55' W 141°01'0 0.0 23.8
2017-Sep-20 17:00N 31°55' W 141°01'1 1.0 23.8
2017-Sep-20 16:00N 31°55' W 141°02'0 0.0 23.8
2017-Sep-20 15:00N 31°55' W 141°02'0 0.0 23.9
2017-Sep-20 14:00N 31°55' W 141°02'2 1.5 23.9
2017-Sep-20 13:00N 31°55' W 141°04'0 0.0 23.9
2017-Sep-20 11:00N 31°55' W 141°04'0 0.0 24.0
2017-Sep-20 06:00N 31°55' W 141°04'3 0.8 24.0
2017-Sep-20 02:00N 31°58' W 141°04'0 0.0 24.0
2017-Sep-20 01:00N 31°58' W 141°04'2 0.2 24.0
2017-Sep-19 17:00N 31°59' W 141°05'1 0.5 23.9
2017-Sep-19 16:00N 31°59' W 141°06'0 0.0 23.9
2017-Sep-19 15:00N 31°59' W 141°06'1 0.6 23.9
2017-Sep-19 14:00N 31°58' W 141°06'0 0.0 23.9
2017-Sep-19 13:00N 31°58' W 141°06'1 0.8 23.9
2017-Sep-19 12:00N 31°59' W 141°05'0 0.0 23.9
2017-Sep-19 04:00N 31°59' W 141°05'0 0.0 23.9
2017-Sep-19 03:00N 31°59' W 141°05'0 0.0 23.9
2017-Sep-19 02:00N 31°59' W 141°05'3 1.6 24.0
2017-Sep-19 00:00N 32°02' W 141°07'0 0.0 24.2
2017-Sep-18 23:00N 32°02' W 141°07'1 0.4 24.9
2017-Sep-18 20:00N 32°02' W 141°08'2 0.7 24.6
2017-Sep-18 17:00N 32°03' W 141°10'0 0.0 23.9
2017-Sep-18 16:00N 32°03' W 141°10'2 0.4 23.9
2017-Sep-18 12:00N 32°04' W 141°12'0 0.0 23.9
2017-Sep-18 06:00N 32°04' W 141°12'2 0.8 24.1
2017-Sep-18 04:00N 32°04' W 141°14'0 0.0 24.1
2017-Sep-18 03:00N 32°04' W 141°14'0 0.0 24.1
2017-Sep-18 02:00N 32°04' W 141°14'4 2.1 24.2
2017-Sep-18 00:00N 32°06' W 141°18'2 0.2 24.2
2017-Sep-17 14:00N 32°05' W 141°20'3 1.6 23.8
2017-Sep-17 12:00N 32°05' W 141°23'0 0.0 23.9
2017-Sep-17 04:00N 32°05' W 141°23'0 0.0 23.9
2017-Sep-17 03:00N 32°05' W 141°23'1 0.5 24.0
2017-Sep-17 02:00N 32°05' W 141°24'0 0.0 24.0
2017-Sep-17 00:00N 32°05' W 141°24'2 0.3 24.1
2017-Sep-16 19:00N 32°05' W 141°26'2 2.0 23.8
2017-Sep-16 18:00N 32°05' W 141°28'0 0.0 23.8
2017-Sep-16 17:00N 32°05' W 141°28'2 1.6 23.8
2017-Sep-16 16:00N 32°05' W 141°30'0 0.0 23.8
2017-Sep-16 15:00N 32°05' W 141°30'2 1.0 23.8
2017-Sep-16 13:00N 32°04' W 141°32'0 0.0 23.8
2017-Sep-16 12:00N 32°04' W 141°32'0 0.0 23.8
2017-Sep-16 11:00N 32°04' W 141°32'0 0.0 23.8
2017-Sep-16 10:00N 32°04' W 141°32'1 0.3 23.8
2017-Sep-16 07:00N 32°04' W 141°33'0 0.0 23.9
2017-Sep-16 06:00N 32°04' W 141°33'0 0.0 23.9
2017-Sep-16 03:00N 32°04' W 141°33'0 0.0 24.1
2017-Sep-16 02:00N 32°04' W 141°33'3 1.6 24.2
2017-Sep-16 00:00N 32°02' W 141°36'0 0.0 24.1
2017-Sep-15 22:00N 32°02' W 141°36'0 0.0 24.0
2017-Sep-15 19:00N 32°02' W 141°36'2 0.5 23.9
2017-Sep-15 16:00N 32°01' W 141°38'0 0.0 23.8
2017-Sep-15 15:00N 32°01' W 141°38'1 0.5 23.8
2017-Sep-15 13:00N 32°01' W 141°39'3 3.4 23.8
2017-Sep-15 12:00N 31°58' W 141°41'0 0.0 23.8
2017-Sep-15 11:00N 31°58' W 141°41'0 0.0 23.8
2017-Sep-15 07:00N 31°58' W 141°41'0 0.0 23.9
2017-Sep-15 06:00N 31°58' W 141°41'1 0.8 23.9
2017-Sep-15 05:00N 31°58' W 141°41'4 3.5 23.9
2017-Sep-15 04:00N 31°56' W 141°45'0 0.0 23.9
2017-Sep-15 03:00N 31°56' W 141°45'0 0.0 23.9
2017-Sep-14 20:00N 31°56' W 141°45'1 0.4 23.8
2017-Sep-14 18:00N 31°55' W 141°46'0 0.0 23.8
2017-Sep-14 17:00N 31°55' W 141°46'0 0.0 23.8
2017-Sep-14 16:00N 31°55' W 141°46'1 0.8 23.8
2017-Sep-14 15:00N 31°55' W 141°46'4 1.3 23.8
2017-Sep-14 12:00N 31°51' W 141°48'0 0.0 23.8
2017-Sep-14 11:00N 31°51' W 141°48'1 0.2 23.8
2017-Sep-14 05:00N 31°52' W 141°48'1 0.6 23.9
2017-Sep-14 04:00N 31°52' W 141°48'1 1.2 23.9
2017-Sep-14 03:00N 31°51' W 141°49'0 0.0 23.9
2017-Sep-14 02:00N 31°51' W 141°49'0 0.0 24.0
2017-Sep-14 00:00N 31°51' W 141°49'0 0.0 24.1
2017-Sep-13 23:00N 31°51' W 141°49'3 0.7 24.0
2017-Sep-13 18:00N 31°48' W 141°51'0 0.0 23.8
2017-Sep-13 15:00N 31°48' W 141°51'1 0.8 23.8
2017-Sep-13 14:00N 31°47' W 141°52'4 3.6 23.8
2017-Sep-13 13:00N 31°44' W 141°52'0 0.0 23.8
2017-Sep-13 12:00N 31°44' W 141°52'0 0.0 23.8
2017-Sep-13 07:00N 31°44' W 141°52'0 0.0 23.9
2017-Sep-13 06:00N 31°44' W 141°52'0 0.0 23.9
2017-Sep-13 05:00N 31°44' W 141°52'2 0.6 23.9
2017-Sep-13 01:00N 31°42' W 141°53'0 0.0 24.0
2017-Sep-13 00:00N 31°42' W 141°53'0 0.0 24.0
2017-Sep-12 19:00N 31°42' W 141°53'1 0.3 23.8
2017-Sep-12 17:00N 31°41' W 141°53'0 0.0 23.7
2017-Sep-12 16:00N 31°41' W 141°53'2 1.9 23.7
2017-Sep-12 15:00N 31°40' W 141°54'2 0.8 23.7
2017-Sep-12 12:00N 31°37' W 141°53'2 2.5 23.8
2017-Sep-12 11:00N 31°40' W 141°54'4 0.7 23.8
2017-Sep-12 06:00N 31°36' W 141°53'1 0.2 23.9
2017-Sep-12 03:00N 31°35' W 141°53'0 0.0 24.1
2017-Sep-12 02:00N 31°35' W 141°53'0 0.0 24.1
2017-Sep-12 00:00N 31°35' W 141°53'0 0.0 24.1
2017-Sep-11 23:00N 31°35' W 141°53'1 0.3 23.9
2017-Sep-11 19:00N 31°34' W 141°53'   23.7
Track history (hours):
 
Tides and Currents Weather Stations Pressure Air Temp Water Temp Dewpoint Dewpoint Depression Visibility Wind Speed Wind Dir Waves Ship Positions

Drifting buoy 43541

Last reported at 2017-Sep-21 19:00 UTC. Time now 2017-Sep-21 23:13 UTC.
Position N 31°50' W 140°55'.

Water temperature 23.8 ° C

Date/timePositionNaut miles runAvg speedWind from/ knotsBaromVisibWave heightAir tempDewpointWater temp
2017-Sep-21 19:00N 31°50' W 140°55'2 1.6 23.8
2017-Sep-21 18:00N 31°50' W 140°57'2 1.6 23.7
2017-Sep-21 17:00N 31°51' W 140°59'2 1.6 23.7
2017-Sep-21 16:00N 31°50' W 140°57'3 0.9 23.7
2017-Sep-21 13:00N 31°51' W 141°00'0 0.0 23.7
2017-Sep-21 12:00N 31°51' W 141°00'0 0.0 23.6
2017-Sep-21 05:00N 31°51' W 141°00'0 0.0 23.7
2017-Sep-21 04:00N 31°51' W 141°00'4 0.9 23.7
2017-Sep-20 23:00N 31°55' W 141°01'0 0.0 23.8
2017-Sep-20 17:00N 31°55' W 141°01'1 1.0 23.8
2017-Sep-20 16:00N 31°55' W 141°02'0 0.0 23.8
2017-Sep-20 15:00N 31°55' W 141°02'0 0.0 23.9
2017-Sep-20 14:00N 31°55' W 141°02'2 1.5 23.9
2017-Sep-20 13:00N 31°55' W 141°04'0 0.0 23.9
2017-Sep-20 11:00N 31°55' W 141°04'0 0.0 24.0
2017-Sep-20 06:00N 31°55' W 141°04'3 0.8 24.0
2017-Sep-20 02:00N 31°58' W 141°04'0 0.0 24.0
2017-Sep-20 01:00N 31°58' W 141°04'2 0.2 24.0
2017-Sep-19 17:00N 31°59' W 141°05'1 0.5 23.9
2017-Sep-19 16:00N 31°59' W 141°06'0 0.0 23.9
2017-Sep-19 15:00N 31°59' W 141°06'1 0.6 23.9
2017-Sep-19 14:00N 31°58' W 141°06'0 0.0 23.9
2017-Sep-19 13:00N 31°58' W 141°06'1 0.8 23.9
2017-Sep-19 12:00N 31°59' W 141°05'0 0.0 23.9
2017-Sep-19 04:00N 31°59' W 141°05'0 0.0 23.9
2017-Sep-19 03:00N 31°59' W 141°05'0 0.0 23.9
2017-Sep-19 02:00N 31°59' W 141°05'3 1.6 24.0
2017-Sep-19 00:00N 32°02' W 141°07'0 0.0 24.2
2017-Sep-18 23:00N 32°02' W 141°07'1 0.4 24.9
2017-Sep-18 20:00N 32°02' W 141°08'2 0.7 24.6
2017-Sep-18 17:00N 32°03' W 141°10'0 0.0 23.9
2017-Sep-18 16:00N 32°03' W 141°10'2 0.4 23.9
2017-Sep-18 12:00N 32°04' W 141°12'0 0.0 23.9
2017-Sep-18 06:00N 32°04' W 141°12'2 0.8 24.1
2017-Sep-18 04:00N 32°04' W 141°14'0 0.0 24.1
2017-Sep-18 03:00N 32°04' W 141°14'0 0.0 24.1
2017-Sep-18 02:00N 32°04' W 141°14'4 2.1 24.2
2017-Sep-18 00:00N 32°06' W 141°18'2 0.2 24.2
2017-Sep-17 14:00N 32°05' W 141°20'3 1.6 23.8
2017-Sep-17 12:00N 32°05' W 141°23'0 0.0 23.9
2017-Sep-17 04:00N 32°05' W 141°23'0 0.0 23.9
2017-Sep-17 03:00N 32°05' W 141°23'1 0.5 24.0
2017-Sep-17 02:00N 32°05' W 141°24'0 0.0 24.0
2017-Sep-17 00:00N 32°05' W 141°24'2 0.3 24.1
2017-Sep-16 19:00N 32°05' W 141°26'2 2.0 23.8
2017-Sep-16 18:00N 32°05' W 141°28'0 0.0 23.8
2017-Sep-16 17:00N 32°05' W 141°28'2 1.6 23.8
2017-Sep-16 16:00N 32°05' W 141°30'0 0.0 23.8
2017-Sep-16 15:00N 32°05' W 141°30'2 1.0 23.8
2017-Sep-16 13:00N 32°04' W 141°32'0 0.0 23.8
2017-Sep-16 12:00N 32°04' W 141°32'0 0.0 23.8
2017-Sep-16 11:00N 32°04' W 141°32'0 0.0 23.8
2017-Sep-16 10:00N 32°04' W 141°32'1 0.3 23.8
2017-Sep-16 07:00N 32°04' W 141°33'0 0.0 23.9
2017-Sep-16 06:00N 32°04' W 141°33'0 0.0 23.9
2017-Sep-16 03:00N 32°04' W 141°33'0 0.0 24.1
2017-Sep-16 02:00N 32°04' W 141°33'3 1.6 24.2
2017-Sep-16 00:00N 32°02' W 141°36'0 0.0 24.1
2017-Sep-15 22:00N 32°02' W 141°36'0 0.0 24.0
2017-Sep-15 19:00N 32°02' W 141°36'2 0.5 23.9
2017-Sep-15 16:00N 32°01' W 141°38'0 0.0 23.8
2017-Sep-15 15:00N 32°01' W 141°38'1 0.5 23.8
2017-Sep-15 13:00N 32°01' W 141°39'3 3.4 23.8
2017-Sep-15 12:00N 31°58' W 141°41'0 0.0 23.8
2017-Sep-15 11:00N 31°58' W 141°41'0 0.0 23.8
2017-Sep-15 07:00N 31°58' W 141°41'0 0.0 23.9
2017-Sep-15 06:00N 31°58' W 141°41'1 0.8 23.9
2017-Sep-15 05:00N 31°58' W 141°41'4 3.5 23.9
2017-Sep-15 04:00N 31°56' W 141°45'0 0.0 23.9
2017-Sep-15 03:00N 31°56' W 141°45'0 0.0 23.9
2017-Sep-14 20:00N 31°56' W 141°45'1 0.4 23.8
2017-Sep-14 18:00N 31°55' W 141°46'0 0.0 23.8
2017-Sep-14 17:00N 31°55' W 141°46'0 0.0 23.8
2017-Sep-14 16:00N 31°55' W 141°46'1 0.8 23.8
2017-Sep-14 15:00N 31°55' W 141°46'4 1.3 23.8
2017-Sep-14 12:00N 31°51' W 141°48'0 0.0 23.8
2017-Sep-14 11:00N 31°51' W 141°48'1 0.2 23.8
2017-Sep-14 05:00N 31°52' W 141°48'1 0.6 23.9
2017-Sep-14 04:00N 31°52' W 141°48'1 1.2 23.9
2017-Sep-14 03:00N 31°51' W 141°49'0 0.0 23.9
2017-Sep-14 02:00N 31°51' W 141°49'0 0.0 24.0
2017-Sep-14 00:00N 31°51' W 141°49'0 0.0 24.1
2017-Sep-13 23:00N 31°51' W 141°49'3 0.7 24.0
2017-Sep-13 18:00N 31°48' W 141°51'0 0.0 23.8
2017-Sep-13 15:00N 31°48' W 141°51'1 0.8 23.8
2017-Sep-13 14:00N 31°47' W 141°52'4 3.6 23.8
2017-Sep-13 13:00N 31°44' W 141°52'0 0.0 23.8
2017-Sep-13 12:00N 31°44' W 141°52'0 0.0 23.8
2017-Sep-13 07:00N 31°44' W 141°52'0 0.0 23.9
2017-Sep-13 06:00N 31°44' W 141°52'0 0.0 23.9
2017-Sep-13 05:00N 31°44' W 141°52'2 0.6 23.9
2017-Sep-13 01:00N 31°42' W 141°53'0 0.0 24.0
2017-Sep-13 00:00N 31°42' W 141°53'0 0.0 24.0
2017-Sep-12 19:00N 31°42' W 141°53'1 0.3 23.8
2017-Sep-12 17:00N 31°41' W 141°53'0 0.0 23.7
2017-Sep-12 16:00N 31°41' W 141°53'2 1.9 23.7
2017-Sep-12 15:00N 31°40' W 141°54'2 0.8 23.7
2017-Sep-12 12:00N 31°37' W 141°53'2 2.5 23.8
2017-Sep-12 11:00N 31°40' W 141°54'4 0.7 23.8
2017-Sep-12 06:00N 31°36' W 141°53'1 0.2 23.9
2017-Sep-12 03:00N 31°35' W 141°53'0 0.0 24.1
2017-Sep-12 02:00N 31°35' W 141°53'0 0.0 24.1
2017-Sep-12 00:00N 31°35' W 141°53'0 0.0 24.1
2017-Sep-11 23:00N 31°35' W 141°53'1 0.3 23.9
2017-Sep-11 19:00N 31°34' W 141°53'   23.7

Dump ship's entire track history